sensor_id;sensor_type;location;lat;lon;timestamp;temperature;humidity
12039;DHT22;6080;48.818;9.526;2023-04-23T03:00:13;12.90;99.90
12039;DHT22;6080;48.818;9.526;2023-04-23T03:02:40;12.90;99.90
12039;DHT22;6080;48.818;9.526;2023-04-23T03:05:06;12.90;99.90
12039;DHT22;6080;48.818;9.526;2023-04-23T03:07:32;12.80;99.90
12039;DHT22;6080;48.818;9.526;2023-04-23T03:09:57;12.90;99.90
12039;DHT22;6080;48.818;9.526;2023-04-23T03:12:23;12.90;99.90
12039;DHT22;6080;48.818;9.526;2023-04-23T03:14:49;12.90;99.90
12039;DHT22;6080;48.818;9.526;2023-04-23T03:17:15;12.80;99.90
12039;DHT22;6080;48.818;9.526;2023-04-23T03:19:40;12.80;99.90
12039;DHT22;6080;48.818;9.526;2023-04-23T03:22:06;12.80;99.90
12039;DHT22;6080;48.818;9.526;2023-04-23T03:24:33;12.80;99.90
12039;DHT22;6080;48.818;9.526;2023-04-23T03:26:59;12.90;99.90
12039;DHT22;6080;48.818;9.526;2023-04-23T03:29:25;12.80;99.90
12039;DHT22;6080;48.818;9.526;2023-04-23T03:31:51;12.70;99.90
12039;DHT22;6080;48.818;9.526;2023-04-23T03:34:17;12.70;99.90
12039;DHT22;6080;48.818;9.526;2023-04-23T03:36:43;12.70;99.90
12039;DHT22;6080;48.818;9.526;2023-04-23T03:39:09;12.70;99.90
12039;DHT22;6080;48.818;9.526;2023-04-23T03:41:35;12.70;99.90
12039;DHT22;6080;48.818;9.526;2023-04-23T03:44:01;12.70;99.90
12039;DHT22;6080;48.818;9.526;2023-04-23T03:46:26;12.60;99.90
12039;DHT22;6080;48.818;9.526;2023-04-23T03:48:52;12.60;99.90
12039;DHT22;6080;48.818;9.526;2023-04-23T03:51:18;12.60;99.90
12039;DHT22;6080;48.818;9.526;2023-04-23T03:53:44;12.60;99.90
12039;DHT22;6080;48.818;9.526;2023-04-23T03:56:10;12.60;99.90
12039;DHT22;6080;48.818;9.526;2023-04-23T03:58:36;12.60;99.90
12039;DHT22;6080;48.818;9.526;2023-04-23T04:01:02;12.60;99.90
12039;DHT22;6080;48.818;9.526;2023-04-23T04:03:28;12.60;99.90
12039;DHT22;6080;48.818;9.526;2023-04-23T04:05:54;12.60;99.90
12039;DHT22;6080;48.818;9.526;2023-04-23T04:08:20;12.50;99.90
12039;DHT22;6080;48.818;9.526;2023-04-23T04:10:47;12.60;99.90
12039;DHT22;6080;48.818;9.526;2023-04-23T04:13:12;12.50;99.90
12039;DHT22;6080;48.818;9.526;2023-04-23T04:15:40;12.50;99.90
12039;DHT22;6080;48.818;9.526;2023-04-23T04:18:06;12.50;99.90
12039;DHT22;6080;48.818;9.526;2023-04-23T04:20:32;12.50;99.90
12039;DHT22;6080;48.818;9.526;2023-04-23T04:22:57;12.50;99.90
12039;DHT22;6080;48.818;9.526;2023-04-23T04:25:23;12.50;99.90
12039;DHT22;6080;48.818;9.526;2023-04-23T04:27:49;12.50;99.90
12039;DHT22;6080;48.818;9.526;2023-04-23T04:30:15;12.50;99.90
12039;DHT22;6080;48.818;9.526;2023-04-23T04:32:41;12.50;99.90
12039;DHT22;6080;48.818;9.526;2023-04-23T04:35:07;12.50;99.90
12039;DHT22;6080;48.818;9.526;2023-04-23T04:37:34;12.50;99.90
12039;DHT22;6080;48.818;9.526;2023-04-23T04:40:00;12.50;99.90
12039;DHT22;6080;48.818;9.526;2023-04-23T04:42:27;12.50;99.90
12039;DHT22;6080;48.818;9.526;2023-04-23T04:44:52;12.50;99.90
12039;DHT22;6080;48.818;9.526;2023-04-23T04:47:18;12.50;99.90
12039;DHT22;6080;48.818;9.526;2023-04-23T04:49:44;12.50;99.90
12039;DHT22;6080;48.818;9.526;2023-04-23T04:52:10;12.50;99.90
12039;DHT22;6080;48.818;9.526;2023-04-23T04:54:36;12.60;99.90
12039;DHT22;6080;48.818;9.526;2023-04-23T04:57:02;12.60;99.90
12039;DHT22;6080;48.818;9.526;2023-04-23T04:59:28;12.60;99.90
12039;DHT22;6080;48.818;9.526;2023-04-23T05:01:53;12.60;99.90
12039;DHT22;6080;48.818;9.526;2023-04-23T05:04:19;12.60;99.90
12039;DHT22;6080;48.818;9.526;2023-04-23T05:06:45;12.50;99.90
12039;DHT22;6080;48.818;9.526;2023-04-23T05:09:11;12.50;99.90
12039;DHT22;6080;48.818;9.526;2023-04-23T05:11:36;12.50;99.90
12039;DHT22;6080;48.818;9.526;2023-04-23T05:14:02;12.50;99.90
12039;DHT22;6080;48.818;9.526;2023-04-23T05:16:29;12.60;99.90
12039;DHT22;6080;48.818;9.526;2023-04-23T05:18:55;12.60;99.90
12039;DHT22;6080;48.818;9.526;2023-04-23T05:21:21;12.60;99.90
12039;DHT22;6080;48.818;9.526;2023-04-23T05:23:47;12.60;99.90
12039;DHT22;6080;48.818;9.526;2023-04-23T05:26:13;12.70;99.90
12039;DHT22;6080;48.818;9.526;2023-04-23T05:28:39;12.70;99.90
12039;DHT22;6080;48.818;9.526;2023-04-23T05:31:05;12.70;99.90
12039;DHT22;6080;48.818;9.526;2023-04-23T05:33:31;12.80;99.90
12039;DHT22;6080;48.818;9.526;2023-04-23T05:35:56;12.80;99.90
12039;DHT22;6080;48.818;9.526;2023-04-23T05:38:22;12.90;99.90
12039;DHT22;6080;48.818;9.526;2023-04-23T05:40:48;13.10;99.90
12039;DHT22;6080;48.818;9.526;2023-04-23T05:43:14;13.30;99.90
12039;DHT22;6080;48.818;9.526;2023-04-23T05:45:40;13.50;99.90
12039;DHT22;6080;48.818;9.526;2023-04-23T05:48:06;13.60;99.90
12039;DHT22;6080;48.818;9.526;2023-04-23T05:50:32;13.60;99.90
12039;DHT22;6080;48.818;9.526;2023-04-23T05:52:58;13.50;99.90
12039;DHT22;6080;48.818;9.526;2023-04-23T05:55:23;13.60;99.90
12039;DHT22;6080;48.818;9.526;2023-04-23T05:57:49;13.50;99.90
12039;DHT22;6080;48.818;9.526;2023-04-23T06:00:15;13.50;99.90
12039;DHT22;6080;48.818;9.526;2023-04-23T06:02:41;13.50;99.90
12039;DHT22;6080;48.818;9.526;2023-04-23T06:05:08;13.60;99.90
12039;DHT22;6080;48.818;9.526;2023-04-23T06:07:34;13.60;99.90
12039;DHT22;6080;48.818;9.526;2023-04-23T06:10:01;13.60;99.90
12039;DHT22;6080;48.818;9.526;2023-04-23T06:12:27;13.60;99.90
12039;DHT22;6080;48.818;9.526;2023-04-23T06:14:53;13.70;99.90
12039;DHT22;6080;48.818;9.526;2023-04-23T06:17:18;13.70;99.90
12039;DHT22;6080;48.818;9.526;2023-04-23T06:19:44;13.80;99.90
12039;DHT22;6080;48.818;9.526;2023-04-23T06:22:10;13.80;99.90
12039;DHT22;6080;48.818;9.526;2023-04-23T06:24:36;13.80;99.90
12039;DHT22;6080;48.818;9.526;2023-04-23T06:27:02;13.90;99.90
12039;DHT22;6080;48.818;9.526;2023-04-23T06:29:28;14.00;99.90
12039;DHT22;6080;48.818;9.526;2023-04-23T06:31:54;14.20;99.90
12039;DHT22;6080;48.818;9.526;2023-04-23T06:34:23;14.40;99.90
12039;DHT22;6080;48.818;9.526;2023-04-23T06:36:50;14.60;99.90
12039;DHT22;6080;48.818;9.526;2023-04-23T06:39:16;14.80;99.90
12039;DHT22;6080;48.818;9.526;2023-04-23T06:41:42;15.00;99.90
12039;DHT22;6080;48.818;9.526;2023-04-23T06:44:08;15.30;99.90
12039;DHT22;6080;48.818;9.526;2023-04-23T06:46:33;16.00;99.90
12039;DHT22;6080;48.818;9.526;2023-04-23T06:48:59;16.20;99.90
12039;DHT22;6080;48.818;9.526;2023-04-23T06:51:25;16.40;99.90
12039;DHT22;6080;48.818;9.526;2023-04-23T06:53:52;16.40;99.90
12039;DHT22;6080;48.818;9.526;2023-04-23T06:56:19;16.50;99.90
12039;DHT22;6080;48.818;9.526;2023-04-23T06:58:46;17.00;99.90
12039;DHT22;6080;48.818;9.526;2023-04-23T07:01:12;17.10;99.90
12039;DHT22;6080;48.818;9.526;2023-04-23T07:03:38;17.20;99.90
12039;DHT22;6080;48.818;9.526;2023-04-23T07:06:04;17.20;99.90
12039;DHT22;6080;48.818;9.526;2023-04-23T07:08:30;17.60;99.90
12039;DHT22;6080;48.818;9.526;2023-04-23T07:10:56;18.10;99.90
12039;DHT22;6080;48.818;9.526;2023-04-23T07:13:22;18.70;99.90
12039;DHT22;6080;48.818;9.526;2023-04-23T07:15:48;19.20;99.90
12039;DHT22;6080;48.818;9.526;2023-04-23T07:18:14;19.50;99.90
12039;DHT22;6080;48.818;9.526;2023-04-23T07:20:40;19.30;99.90
12039;DHT22;6080;48.818;9.526;2023-04-23T07:23:09;18.90;99.90
12039;DHT22;6080;48.818;9.526;2023-04-23T07:25:35;18.50;99.90
12039;DHT22;6080;48.818;9.526;2023-04-23T07:28:01;18.20;99.90
12039;DHT22;6080;48.818;9.526;2023-04-23T07:30:27;18.00;99.90
12039;DHT22;6080;48.818;9.526;2023-04-23T07:32:53;18.10;99.90
12039;DHT22;6080;48.818;9.526;2023-04-23T07:35:20;17.80;99.90
12039;DHT22;6080;48.818;9.526;2023-04-23T07:37:46;17.70;99.90
12039;DHT22;6080;48.818;9.526;2023-04-23T07:40:15;17.70;99.90
12039;DHT22;6080;48.818;9.526;2023-04-23T07:42:40;18.20;99.90
12039;DHT22;6080;48.818;9.526;2023-04-23T07:45:06;18.60;99.90
12039;DHT22;6080;48.818;9.526;2023-04-23T07:47:33;18.50;99.90
12039;DHT22;6080;48.818;9.526;2023-04-23T07:49:58;18.60;99.90
12039;DHT22;6080;48.818;9.526;2023-04-23T07:52:24;19.30;99.90
12039;DHT22;6080;48.818;9.526;2023-04-23T07:54:50;20.30;99.90
12039;DHT22;6080;48.818;9.526;2023-04-23T07:57:16;21.10;99.90
12039;DHT22;6080;48.818;9.526;2023-04-23T07:59:42;21.30;99.90
12039;DHT22;6080;48.818;9.526;2023-04-23T08:02:08;22.10;99.90
12039;DHT22;6080;48.818;9.526;2023-04-23T08:04:33;22.40;99.90
12039;DHT22;6080;48.818;9.526;2023-04-23T08:06:59;22.40;99.90
12039;DHT22;6080;48.818;9.526;2023-04-23T08:09:25;22.10;99.90
12039;DHT22;6080;48.818;9.526;2023-04-23T08:11:51;21.00;99.90
12039;DHT22;6080;48.818;9.526;2023-04-23T08:14:17;20.90;99.90
12039;DHT22;6080;48.818;9.526;2023-04-23T08:16:43;20.60;99.90
12039;DHT22;6080;48.818;9.526;2023-04-23T08:19:09;20.70;99.90
12039;DHT22;6080;48.818;9.526;2023-04-23T08:21:36;20.60;99.90
12039;DHT22;6080;48.818;9.526;2023-04-23T08:24:02;20.40;99.90
12039;DHT22;6080;48.818;9.526;2023-04-23T08:26:29;20.00;99.90
12039;DHT22;6080;48.818;9.526;2023-04-23T08:28:55;19.40;99.90
12039;DHT22;6080;48.818;9.526;2023-04-23T08:31:21;19.00;99.90
12039;DHT22;6080;48.818;9.526;2023-04-23T08:33:46;18.90;99.90
12039;DHT22;6080;48.818;9.526;2023-04-23T08:36:12;18.80;99.90
12039;DHT22;6080;48.818;9.526;2023-04-23T08:38:40;18.50;99.90
12039;DHT22;6080;48.818;9.526;2023-04-23T08:41:09;18.30;99.90
12039;DHT22;6080;48.818;9.526;2023-04-23T08:44:00;18.20;99.90
12039;DHT22;6080;48.818;9.526;2023-04-23T08:46:30;18.20;99.90
12039;DHT22;6080;48.818;9.526;2023-04-23T08:49:00;18.90;99.90
12039;DHT22;6080;48.818;9.526;2023-04-23T08:51:29;20.30;99.90
12039;DHT22;6080;48.818;9.526;2023-04-23T08:53:58;21.30;99.90
12039;DHT22;6080;48.818;9.526;2023-04-23T08:56:26;22.00;99.90
12039;DHT22;6080;48.818;9.526;2023-04-23T08:58:52;22.00;99.90
12039;DHT22;6080;48.818;9.526;2023-04-23T09:01:18;21.30;99.90
12039;DHT22;6080;48.818;9.526;2023-04-23T09:03:44;20.80;99.90
12039;DHT22;6080;48.818;9.526;2023-04-23T09:06:11;20.60;99.90
12039;DHT22;6080;48.818;9.526;2023-04-23T09:08:37;20.30;99.90
12039;DHT22;6080;48.818;9.526;2023-04-23T09:11:04;20.20;99.90
12039;DHT22;6080;48.818;9.526;2023-04-23T09:13:32;20.10;99.90
12039;DHT22;6080;48.818;9.526;2023-04-23T09:15:58;20.50;99.90
12039;DHT22;6080;48.818;9.526;2023-04-23T09:18:23;21.20;99.90
12039;DHT22;6080;48.818;9.526;2023-04-23T09:20:49;21.80;99.90
12039;DHT22;6080;48.818;9.526;2023-04-23T09:23:15;22.00;99.90
12039;DHT22;6080;48.818;9.526;2023-04-23T09:25:41;22.00;99.90
12039;DHT22;6080;48.818;9.526;2023-04-23T09:28:07;21.60;99.40
12039;DHT22;6080;48.818;9.526;2023-04-23T09:30:53;21.10;99.90
12039;DHT22;6080;48.818;9.526;2023-04-23T09:33:20;20.30;99.90
12039;DHT22;6080;48.818;9.526;2023-04-23T09:35:45;19.80;99.90
12039;DHT22;6080;48.818;9.526;2023-04-23T09:38:13;19.60;99.90
12039;DHT22;6080;48.818;9.526;2023-04-23T09:40:39;19.60;99.90
12039;DHT22;6080;48.818;9.526;2023-04-23T09:43:05;19.70;99.90
12039;DHT22;6080;48.818;9.526;2023-04-23T09:45:34;20.10;99.90
12039;DHT22;6080;48.818;9.526;2023-04-23T09:48:00;20.40;99.90
12039;DHT22;6080;48.818;9.526;2023-04-23T09:50:34;20.80;99.90
12039;DHT22;6080;48.818;9.526;2023-04-23T09:53:02;20.70;99.90
12039;DHT22;6080;48.818;9.526;2023-04-23T09:55:32;20.80;99.90
12039;DHT22;6080;48.818;9.526;2023-04-23T09:58:06;21.00;99.90
12039;DHT22;6080;48.818;9.526;2023-04-23T10:00:36;21.30;99.90
12039;DHT22;6080;48.818;9.526;2023-04-23T10:03:03;21.70;99.20
12039;DHT22;6080;48.818;9.526;2023-04-23T10:05:30;21.70;97.90
12039;DHT22;6080;48.818;9.526;2023-04-23T10:07:56;22.30;98.60
12039;DHT22;6080;48.818;9.526;2023-04-23T10:10:24;23.20;97.60
12039;DHT22;6080;48.818;9.526;2023-04-23T10:12:52;23.30;95.00
12039;DHT22;6080;48.818;9.526;2023-04-23T10:15:19;22.60;96.50
12039;DHT22;6080;48.818;9.526;2023-04-23T10:17:45;22.50;95.20
12039;DHT22;6080;48.818;9.526;2023-04-23T10:20:12;21.80;96.40
12039;DHT22;6080;48.818;9.526;2023-04-23T10:22:40;21.70;96.70
12039;DHT22;6080;48.818;9.526;2023-04-23T10:25:10;21.80;95.40
12039;DHT22;6080;48.818;9.526;2023-04-23T10:27:38;22.00;95.00
12039;DHT22;6080;48.818;9.526;2023-04-23T10:30:05;22.40;92.00
12039;DHT22;6080;48.818;9.526;2023-04-23T10:32:35;22.70;91.00
12039;DHT22;6080;48.818;9.526;2023-04-23T10:35:01;23.20;89.80
12039;DHT22;6080;48.818;9.526;2023-04-23T10:37:28;23.50;88.50
12039;DHT22;6080;48.818;9.526;2023-04-23T10:39:55;23.60;85.90
12039;DHT22;6080;48.818;9.526;2023-04-23T10:42:24;23.80;80.90
12039;DHT22;6080;48.818;9.526;2023-04-23T10:44:55;24.40;80.60
12039;DHT22;6080;48.818;9.526;2023-04-23T10:47:22;24.40;77.30
12039;DHT22;6080;48.818;9.526;2023-04-23T10:49:47;24.10;77.70
12039;DHT22;6080;48.818;9.526;2023-04-23T10:52:15;24.60;76.00
12039;DHT22;6080;48.818;9.526;2023-04-23T10:54:43;25.20;71.40
12039;DHT22;6080;48.818;9.526;2023-04-23T10:57:11;25.10;74.70
12039;DHT22;6080;48.818;9.526;2023-04-23T10:59:59;24.80;73.80
12039;DHT22;6080;48.818;9.526;2023-04-23T11:02:24;24.30;73.30
12039;DHT22;6080;48.818;9.526;2023-04-23T11:04:57;23.80;73.50
12039;DHT22;6080;48.818;9.526;2023-04-23T11:07:31;23.40;75.80
12039;DHT22;6080;48.818;9.526;2023-04-23T11:10:13;23.60;74.90
12039;DHT22;6080;48.818;9.526;2023-04-23T11:12:40;23.60;75.10
12039;DHT22;6080;48.818;9.526;2023-04-23T11:15:17;23.10;76.10
12039;DHT22;6080;48.818;9.526;2023-04-23T11:20:09;22.30;81.90
12039;DHT22;6080;48.818;9.526;2023-04-23T11:22:43;22.40;81.20
12039;DHT22;6080;48.818;9.526;2023-04-23T11:25:11;22.80;80.60
12039;DHT22;6080;48.818;9.526;2023-04-23T11:27:42;23.70;81.10
12039;DHT22;6080;48.818;9.526;2023-04-23T11:30:25;24.40;79.10
12039;DHT22;6080;48.818;9.526;2023-04-23T11:32:53;25.00;74.30
12039;DHT22;6080;48.818;9.526;2023-04-23T11:35:21;25.40;74.80
12039;DHT22;6080;48.818;9.526;2023-04-23T11:37:48;24.50;72.10
12039;DHT22;6080;48.818;9.526;2023-04-23T11:40:17;24.40;72.10
12039;DHT22;6080;48.818;9.526;2023-04-23T11:42:52;24.30;73.90
12039;DHT22;6080;48.818;9.526;2023-04-23T11:45:27;24.30;73.90
12039;DHT22;6080;48.818;9.526;2023-04-23T11:47:55;24.30;75.40
12039;DHT22;6080;48.818;9.526;2023-04-23T11:52:48;23.50;74.90
12039;DHT22;6080;48.818;9.526;2023-04-23T11:55:14;23.40;74.70
12039;DHT22;6080;48.818;9.526;2023-04-23T11:57:45;24.80;76.80
12039;DHT22;6080;48.818;9.526;2023-04-23T12:00:18;25.90;68.60
12039;DHT22;6080;48.818;9.526;2023-04-23T12:05:32;26.50;68.30
12039;DHT22;6080;48.818;9.526;2023-04-23T12:08:13;25.90;69.10
12039;DHT22;6080;48.818;9.526;2023-04-23T12:10:46;25.40;71.30
12039;DHT22;6080;48.818;9.526;2023-04-23T12:13:23;25.40;69.70
12039;DHT22;6080;48.818;9.526;2023-04-23T12:15:54;25.70;71.10
12039;DHT22;6080;48.818;9.526;2023-04-23T12:18:27;25.50;67.50
12039;DHT22;6080;48.818;9.526;2023-04-23T12:20:53;25.20;67.50
12039;DHT22;6080;48.818;9.526;2023-04-23T12:23:25;25.70;66.60
12039;DHT22;6080;48.818;9.526;2023-04-23T12:25:55;25.80;65.00
12039;DHT22;6080;48.818;9.526;2023-04-23T12:28:24;26.50;64.30
12039;DHT22;6080;48.818;9.526;2023-04-23T12:30:50;26.40;64.00
12039;DHT22;6080;48.818;9.526;2023-04-23T12:33:17;26.80;64.60
12039;DHT22;6080;48.818;9.526;2023-04-23T12:35:48;27.20;64.40
12039;DHT22;6080;48.818;9.526;2023-04-23T12:38:22;27.60;61.90
12039;DHT22;6080;48.818;9.526;2023-04-23T12:40:49;28.30;61.20
12039;DHT22;6080;48.818;9.526;2023-04-23T12:43:15;28.60;60.10
12039;DHT22;6080;48.818;9.526;2023-04-23T12:45:41;28.50;59.20
12039;DHT22;6080;48.818;9.526;2023-04-23T12:48:07;27.70;60.40
12039;DHT22;6080;48.818;9.526;2023-04-23T12:50:32;27.20;60.40
12039;DHT22;6080;48.818;9.526;2023-04-23T12:52:58;27.60;60.80
12039;DHT22;6080;48.818;9.526;2023-04-23T12:55:24;28.00;59.70
12039;DHT22;6080;48.818;9.526;2023-04-23T12:57:50;28.20;59.60
12039;DHT22;6080;48.818;9.526;2023-04-23T13:00:16;27.20;60.60
12039;DHT22;6080;48.818;9.526;2023-04-23T13:02:42;26.60;62.30
12039;DHT22;6080;48.818;9.526;2023-04-23T13:05:08;26.70;63.60
12039;DHT22;6080;48.818;9.526;2023-04-23T13:07:34;27.10;61.20
12039;DHT22;6080;48.818;9.526;2023-04-23T13:10:00;25.90;60.60
12039;DHT22;6080;48.818;9.526;2023-04-23T13:12:25;25.30;62.60
12039;DHT22;6080;48.818;9.526;2023-04-23T13:14:51;25.70;62.80
12039;DHT22;6080;48.818;9.526;2023-04-23T13:17:17;26.70;62.10
12039;DHT22;6080;48.818;9.526;2023-04-23T13:19:43;27.20;58.90
12039;DHT22;6080;48.818;9.526;2023-04-23T13:22:09;27.40;59.50
12039;DHT22;6080;48.818;9.526;2023-04-23T13:24:35;28.00;59.30
12039;DHT22;6080;48.818;9.526;2023-04-23T13:27:01;29.20;57.40
12039;DHT22;6080;48.818;9.526;2023-04-23T13:29:27;28.70;57.00
12039;DHT22;6080;48.818;9.526;2023-04-23T13:31:54;28.10;57.80
12039;DHT22;6080;48.818;9.526;2023-04-23T13:34:20;27.10;60.00
12039;DHT22;6080;48.818;9.526;2023-04-23T13:36:46;25.90;61.80
12039;DHT22;6080;48.818;9.526;2023-04-23T13:39:11;25.40;64.20
12039;DHT22;6080;48.818;9.526;2023-04-23T13:41:41;25.40;64.70
12039;DHT22;6080;48.818;9.526;2023-04-23T13:44:07;27.40;60.40
12039;DHT22;6080;48.818;9.526;2023-04-23T13:46:33;28.30;56.30
12039;DHT22;6080;48.818;9.526;2023-04-23T13:48:59;29.00;53.70
12039;DHT22;6080;48.818;9.526;2023-04-23T13:51:26;28.30;53.90
12039;DHT22;6080;48.818;9.526;2023-04-23T13:53:52;28.30;54.60
12039;DHT22;6080;48.818;9.526;2023-04-23T13:56:17;28.60;54.40
12039;DHT22;6080;48.818;9.526;2023-04-23T13:58:43;27.80;53.20
12039;DHT22;6080;48.818;9.526;2023-04-23T14:01:11;26.20;56.20
12039;DHT22;6080;48.818;9.526;2023-04-23T14:03:38;25.40;58.70
12039;DHT22;6080;48.818;9.526;2023-04-23T14:06:05;26.40;57.60
12039;DHT22;6080;48.818;9.526;2023-04-23T14:08:31;27.80;54.00
12039;DHT22;6080;48.818;9.526;2023-04-23T14:10:57;28.50;54.20
12039;DHT22;6080;48.818;9.526;2023-04-23T14:13:22;27.40;55.70
12039;DHT22;6080;48.818;9.526;2023-04-23T14:15:48;26.40;58.30
12039;DHT22;6080;48.818;9.526;2023-04-23T14:18:14;26.00;59.10
12039;DHT22;6080;48.818;9.526;2023-04-23T14:20:41;25.30;59.20
12039;DHT22;6080;48.818;9.526;2023-04-23T14:25:45;24.90;59.10
12039;DHT22;6080;48.818;9.526;2023-04-23T14:28:27;25.50;59.40
12039;DHT22;6080;48.818;9.526;2023-04-23T14:30:55;26.30;58.50
12039;DHT22;6080;48.818;9.526;2023-04-23T14:33:22;27.50;55.50
12039;DHT22;6080;48.818;9.526;2023-04-23T14:35:48;27.90;53.00
12039;DHT22;6080;48.818;9.526;2023-04-23T14:38:13;26.80;54.50
12039;DHT22;6080;48.818;9.526;2023-04-23T14:40:39;25.20;56.30
12039;DHT22;6080;48.818;9.526;2023-04-23T14:43:05;23.90;58.50
12039;DHT22;6080;48.818;9.526;2023-04-23T14:45:31;23.70;61.00
12039;DHT22;6080;48.818;9.526;2023-04-23T14:48:00;24.40;60.80
12039;DHT22;6080;48.818;9.526;2023-04-23T14:50:26;24.70;58.10
12039;DHT22;6080;48.818;9.526;2023-04-23T14:52:53;26.00;57.20
12039;DHT22;6080;48.818;9.526;2023-04-23T14:55:20;26.50;56.10
12039;DHT22;6080;48.818;9.526;2023-04-23T14:57:46;26.80;56.30
12039;DHT22;6080;48.818;9.526;2023-04-23T15:00:12;27.40;56.10
12039;DHT22;6080;48.818;9.526;2023-04-23T15:02:40;26.90;55.00
12039;DHT22;6080;48.818;9.526;2023-04-23T15:05:07;26.40;56.30
12039;DHT22;6080;48.818;9.526;2023-04-23T15:07:36;26.00;56.20
12039;DHT22;6080;48.818;9.526;2023-04-23T15:10:04;25.40;57.30
12039;DHT22;6080;48.818;9.526;2023-04-23T15:17:38;24.80;57.80
12039;DHT22;6080;48.818;9.526;2023-04-23T15:20:05;24.60;58.10
12039;DHT22;6080;48.818;9.526;2023-04-23T15:22:31;24.40;58.20
12039;DHT22;6080;48.818;9.526;2023-04-23T15:24:56;24.40;60.10
12039;DHT22;6080;48.818;9.526;2023-04-23T15:27:22;24.40;61.40
12039;DHT22;6080;48.818;9.526;2023-04-23T15:29:48;24.50;59.80
12039;DHT22;6080;48.818;9.526;2023-04-23T15:32:15;24.30;61.00
12039;DHT22;6080;48.818;9.526;2023-04-23T15:34:41;23.70;60.20
12039;DHT22;6080;48.818;9.526;2023-04-23T15:37:07;23.30;60.90
12039;DHT22;6080;48.818;9.526;2023-04-23T15:39:33;23.40;62.30
12039;DHT22;6080;48.818;9.526;2023-04-23T15:41:58;23.10;62.20
12039;DHT22;6080;48.818;9.526;2023-04-23T15:44:24;23.10;61.90
12039;DHT22;6080;48.818;9.526;2023-04-23T15:46:51;23.00;63.40
12039;DHT22;6080;48.818;9.526;2023-04-23T15:49:16;23.00;61.70
12039;DHT22;6080;48.818;9.526;2023-04-23T15:51:42;23.00;63.80
12039;DHT22;6080;48.818;9.526;2023-04-23T15:54:08;22.90;63.30
12039;DHT22;6080;48.818;9.526;2023-04-23T15:56:34;22.90;63.10
12039;DHT22;6080;48.818;9.526;2023-04-23T15:59:01;22.70;64.20
12039;DHT22;6080;48.818;9.526;2023-04-23T16:01:27;22.80;64.80
12039;DHT22;6080;48.818;9.526;2023-04-23T16:03:52;22.70;64.00
12039;DHT22;6080;48.818;9.526;2023-04-23T16:06:18;22.60;65.00
12039;DHT22;6080;48.818;9.526;2023-04-23T16:08:44;22.40;66.30
12039;DHT22;6080;48.818;9.526;2023-04-23T16:11:10;22.20;67.10
12039;DHT22;6080;48.818;9.526;2023-04-23T16:13:37;21.90;68.50
12039;DHT22;6080;48.818;9.526;2023-04-23T16:16:03;21.70;69.50
12039;DHT22;6080;48.818;9.526;2023-04-23T16:18:29;21.30;74.90
12039;DHT22;6080;48.818;9.526;2023-04-23T16:20:56;20.60;76.50
12039;DHT22;6080;48.818;9.526;2023-04-23T16:23:23;19.60;90.30
12039;DHT22;6080;48.818;9.526;2023-04-23T16:25:49;18.10;99.90
12039;DHT22;6080;48.818;9.526;2023-04-23T16:28:15;16.90;99.90
12039;DHT22;6080;48.818;9.526;2023-04-23T16:30:41;16.20;99.90
12039;DHT22;6080;48.818;9.526;2023-04-23T16:33:07;15.80;99.90
12039;DHT22;6080;48.818;9.526;2023-04-23T16:35:33;15.80;99.90
12039;DHT22;6080;48.818;9.526;2023-04-23T16:37:59;15.90;99.90
12039;DHT22;6080;48.818;9.526;2023-04-23T16:40:25;15.90;99.90
12039;DHT22;6080;48.818;9.526;2023-04-23T16:42:52;16.00;99.90
12039;DHT22;6080;48.818;9.526;2023-04-23T16:45:18;16.20;99.90
12039;DHT22;6080;48.818;9.526;2023-04-23T16:47:51;16.30;99.90
12039;DHT22;6080;48.818;9.526;2023-04-23T16:50:16;16.40;99.90
12039;DHT22;6080;48.818;9.526;2023-04-23T16:52:42;16.40;99.90
12039;DHT22;6080;48.818;9.526;2023-04-23T16:55:08;16.30;99.90
12039;DHT22;6080;48.818;9.526;2023-04-23T16:57:35;16.00;99.90
12039;DHT22;6080;48.818;9.526;2023-04-23T17:00:01;15.10;99.90
12039;DHT22;6080;48.818;9.526;2023-04-23T17:02:29;14.50;99.90
12039;DHT22;6080;48.818;9.526;2023-04-23T17:04:55;14.10;99.90
12039;DHT22;6080;48.818;9.526;2023-04-23T17:07:21;13.90;99.90
12039;DHT22;6080;48.818;9.526;2023-04-23T17:09:47;13.80;99.90
12039;DHT22;6080;48.818;9.526;2023-04-23T17:12:12;13.80;99.90
12039;DHT22;6080;48.818;9.526;2023-04-23T17:14:39;13.60;99.90
12039;DHT22;6080;48.818;9.526;2023-04-23T17:17:04;13.50;99.90
12039;DHT22;6080;48.818;9.526;2023-04-23T17:19:30;13.40;99.90
12039;DHT22;6080;48.818;9.526;2023-04-23T17:21:56;13.50;99.90
12039;DHT22;6080;48.818;9.526;2023-04-23T17:24:23;13.50;99.90
12039;DHT22;6080;48.818;9.526;2023-04-23T17:26:49;13.60;99.90
12039;DHT22;6080;48.818;9.526;2023-04-23T17:29:14;13.70;99.90
12039;DHT22;6080;48.818;9.526;2023-04-23T17:31:40;13.70;99.90
12039;DHT22;6080;48.818;9.526;2023-04-23T17:34:06;13.80;99.90
12039;DHT22;6080;48.818;9.526;2023-04-23T17:36:32;13.70;99.90
12039;DHT22;6080;48.818;9.526;2023-04-23T17:38:58;13.70;99.90
12039;DHT22;6080;48.818;9.526;2023-04-23T17:41:24;13.80;99.90
12039;DHT22;6080;48.818;9.526;2023-04-23T17:43:50;13.80;99.90
12039;DHT22;6080;48.818;9.526;2023-04-23T17:46:16;13.80;99.90
12039;DHT22;6080;48.818;9.526;2023-04-23T17:48:42;13.90;99.90
12039;DHT22;6080;48.818;9.526;2023-04-23T17:51:08;13.80;99.90
12039;DHT22;6080;48.818;9.526;2023-04-23T17:53:33;13.90;99.90
12039;DHT22;6080;48.818;9.526;2023-04-23T17:55:59;13.80;99.90
12039;DHT22;6080;48.818;9.526;2023-04-23T17:58:27;13.90;99.90
12039;DHT22;6080;48.818;9.526;2023-04-23T18:00:53;13.80;99.90
12039;DHT22;6080;48.818;9.526;2023-04-23T18:03:19;13.90;99.90
12039;DHT22;6080;48.818;9.526;2023-04-23T18:05:46;13.90;99.90
12039;DHT22;6080;48.818;9.526;2023-04-23T18:08:12;13.90;99.90
12039;DHT22;6080;48.818;9.526;2023-04-23T18:10:43;13.90;99.90
12039;DHT22;6080;48.818;9.526;2023-04-23T18:13:09;13.90;99.90
12039;DHT22;6080;48.818;9.526;2023-04-23T18:15:37;14.00;99.90
12039;DHT22;6080;48.818;9.526;2023-04-23T18:18:03;13.80;99.90
12039;DHT22;6080;48.818;9.526;2023-04-23T18:20:29;13.80;99.90
12039;DHT22;6080;48.818;9.526;2023-04-23T18:22:56;13.80;99.90
12039;DHT22;6080;48.818;9.526;2023-04-23T18:25:22;13.80;99.90
12039;DHT22;6080;48.818;9.526;2023-04-23T18:27:49;13.80;99.90
12039;DHT22;6080;48.818;9.526;2023-04-23T18:30:15;13.80;99.90
12039;DHT22;6080;48.818;9.526;2023-04-23T18:32:47;13.70;99.90
12039;DHT22;6080;48.818;9.526;2023-04-23T18:35:13;13.60;99.90
12039;DHT22;6080;48.818;9.526;2023-04-23T18:37:46;13.60;99.90
12039;DHT22;6080;48.818;9.526;2023-04-23T18:40:12;13.50;99.90
12039;DHT22;6080;48.818;9.526;2023-04-23T18:42:38;13.50;99.90
12039;DHT22;6080;48.818;9.526;2023-04-23T18:45:05;13.50;99.90
12039;DHT22;6080;48.818;9.526;2023-04-23T18:47:35;13.40;99.90
12039;DHT22;6080;48.818;9.526;2023-04-23T18:50:06;13.40;99.90
12039;DHT22;6080;48.818;9.526;2023-04-23T18:52:33;13.30;99.90
12039;DHT22;6080;48.818;9.526;2023-04-23T18:54:58;13.10;99.90
12039;DHT22;6080;48.818;9.526;2023-04-23T18:57:24;13.00;99.90